sensor_id;sensor_type;location;lat;lon;timestamp;P1;durP1;ratioP1;P2;durP2;ratioP2
34282;SDS011;20542;49.828;8.746;2022-07-03T00:01:31;1.35;;;1.15;;
34282;SDS011;20542;49.828;8.746;2022-07-03T00:03:56;3.03;;;1.67;;
34282;SDS011;20542;49.828;8.746;2022-07-03T00:06:22;1.75;;;1.15;;
34282;SDS011;20542;49.828;8.746;2022-07-03T00:08:48;2.92;;;1.38;;
34282;SDS011;20542;49.828;8.746;2022-07-03T00:11:14;1.63;;;1.15;;
34282;SDS011;20542;49.828;8.746;2022-07-03T00:13:40;1.43;;;1.13;;
34282;SDS011;20542;49.828;8.746;2022-07-03T00:16:06;3.42;;;1.15;;
34282;SDS011;20542;49.828;8.746;2022-07-03T00:18:31;2.22;;;1.30;;
34282;SDS011;20542;49.828;8.746;2022-07-03T00:21:01;1.65;;;1.20;;
34282;SDS011;20542;49.828;8.746;2022-07-03T00:23:44;1.42;;;1.20;;
34282;SDS011;20542;49.828;8.746;2022-07-03T00:26:13;1.45;;;1.20;;
34282;SDS011;20542;49.828;8.746;2022-07-03T00:31:05;4.70;;;1.30;;
34282;SDS011;20542;49.828;8.746;2022-07-03T00:33:32;2.53;;;1.65;;
34282;SDS011;20542;49.828;8.746;2022-07-03T00:35:59;3.63;;;1.77;;
34282;SDS011;20542;49.828;8.746;2022-07-03T00:38:25;3.17;;;1.50;;
34282;SDS011;20542;49.828;8.746;2022-07-03T00:40:52;2.15;;;1.70;;
34282;SDS011;20542;49.828;8.746;2022-07-03T00:43:17;3.75;;;1.52;;
34282;SDS011;20542;49.828;8.746;2022-07-03T00:45:45;3.90;;;1.75;;
34282;SDS011;20542;49.828;8.746;2022-07-03T00:48:15;5.93;;;2.38;;
34282;SDS011;20542;49.828;8.746;2022-07-03T00:50:44;4.30;;;1.80;;
34282;SDS011;20542;49.828;8.746;2022-07-03T00:53:19;5.28;;;1.80;;
34282;SDS011;20542;49.828;8.746;2022-07-03T00:55:52;6.00;;;3.15;;
34282;SDS011;20542;49.828;8.746;2022-07-03T00:58:21;3.97;;;2.05;;
34282;SDS011;20542;49.828;8.746;2022-07-03T01:00:47;3.87;;;2.10;;
34282;SDS011;20542;49.828;8.746;2022-07-03T01:03:17;4.00;;;2.40;;
34282;SDS011;20542;49.828;8.746;2022-07-03T01:05:45;4.63;;;2.00;;
34282;SDS011;20542;49.828;8.746;2022-07-03T01:08:36;3.30;;;2.10;;
34282;SDS011;20542;49.828;8.746;2022-07-03T01:11:37;2.67;;;1.75;;
34282;SDS011;20542;49.828;8.746;2022-07-03T01:17:24;4.45;;;2.33;;
34282;SDS011;20542;49.828;8.746;2022-07-03T01:20:02;2.78;;;2.22;;
34282;SDS011;20542;49.828;8.746;2022-07-03T01:22:42;3.58;;;2.10;;
34282;SDS011;20542;49.828;8.746;2022-07-03T01:25:23;4.18;;;2.50;;
34282;SDS011;20542;49.828;8.746;2022-07-03T01:28:08;3.60;;;2.30;;
34282;SDS011;20542;49.828;8.746;2022-07-03T01:33:23;3.20;;;2.10;;
34282;SDS011;20542;49.828;8.746;2022-07-03T01:38:16;2.57;;;1.80;;
34282;SDS011;20542;49.828;8.746;2022-07-03T01:40:42;2.67;;;1.65;;
34282;SDS011;20542;49.828;8.746;2022-07-03T01:43:08;3.03;;;2.17;;
34282;SDS011;20542;49.828;8.746;2022-07-03T01:45:39;2.53;;;1.83;;
34282;SDS011;20542;49.828;8.746;2022-07-03T01:48:09;2.05;;;1.63;;
34282;SDS011;20542;49.828;8.746;2022-07-03T01:50:36;6.38;;;1.92;;
34282;SDS011;20542;49.828;8.746;2022-07-03T01:53:02;2.17;;;1.70;;
34282;SDS011;20542;49.828;8.746;2022-07-03T01:55:31;4.25;;;1.73;;
34282;SDS011;20542;49.828;8.746;2022-07-03T01:57:57;2.85;;;2.20;;
34282;SDS011;20542;49.828;8.746;2022-07-03T02:00:24;1.93;;;1.50;;
34282;SDS011;20542;49.828;8.746;2022-07-03T02:02:52;2.30;;;1.65;;
34282;SDS011;20542;49.828;8.746;2022-07-03T02:13:29;2.28;;;1.60;;
34282;SDS011;20542;49.828;8.746;2022-07-03T02:16:01;2.20;;;1.52;;
34282;SDS011;20542;49.828;8.746;2022-07-03T02:18:27;5.45;;;1.77;;
34282;SDS011;20542;49.828;8.746;2022-07-03T02:23:30;2.03;;;1.50;;
34282;SDS011;20542;49.828;8.746;2022-07-03T02:25:58;1.63;;;1.40;;
34282;SDS011;20542;49.828;8.746;2022-07-03T02:31:05;1.42;;;1.33;;
34282;SDS011;20542;49.828;8.746;2022-07-03T02:33:34;3.08;;;1.58;;
34282;SDS011;20542;49.828;8.746;2022-07-03T02:36:03;4.45;;;1.55;;
34282;SDS011;20542;49.828;8.746;2022-07-03T02:38:34;1.65;;;1.50;;
34282;SDS011;20542;49.828;8.746;2022-07-03T02:43:54;3.50;;;1.48;;
34282;SDS011;20542;49.828;8.746;2022-07-03T02:46:42;2.33;;;1.50;;
34282;SDS011;20542;49.828;8.746;2022-07-03T02:52:21;2.00;;;1.43;;
34282;SDS011;20542;49.828;8.746;2022-07-03T02:54:52;2.75;;;1.50;;
34282;SDS011;20542;49.828;8.746;2022-07-03T02:57:22;3.22;;;1.33;;
34282;SDS011;20542;49.828;8.746;2022-07-03T03:00:03;4.13;;;1.50;;
34282;SDS011;20542;49.828;8.746;2022-07-03T03:05:13;2.40;;;1.67;;
34282;SDS011;20542;49.828;8.746;2022-07-03T03:10:27;1.40;;;1.30;;
34282;SDS011;20542;49.828;8.746;2022-07-03T03:13:09;2.72;;;1.17;;
34282;SDS011;20542;49.828;8.746;2022-07-03T03:15:37;1.33;;;1.20;;
34282;SDS011;20542;49.828;8.746;2022-07-03T03:20:36;1.88;;;1.20;;
34282;SDS011;20542;49.828;8.746;2022-07-03T03:25:50;1.98;;;1.50;;
34282;SDS011;20542;49.828;8.746;2022-07-03T03:28:16;1.60;;;1.27;;
34282;SDS011;20542;49.828;8.746;2022-07-03T03:30:42;2.42;;;1.48;;
34282;SDS011;20542;49.828;8.746;2022-07-03T03:33:07;2.97;;;1.30;;
34282;SDS011;20542;49.828;8.746;2022-07-03T03:35:35;2.22;;;1.85;;
34282;SDS011;20542;49.828;8.746;2022-07-03T03:38:01;3.63;;;1.70;;
34282;SDS011;20542;49.828;8.746;2022-07-03T03:40:27;5.45;;;1.35;;
34282;SDS011;20542;49.828;8.746;2022-07-03T03:42:53;3.03;;;1.60;;
34282;SDS011;20542;49.828;8.746;2022-07-03T03:45:18;3.95;;;1.10;;
34282;SDS011;20542;49.828;8.746;2022-07-03T03:47:44;1.55;;;1.30;;
34282;SDS011;20542;49.828;8.746;2022-07-03T03:50:10;1.92;;;1.30;;
34282;SDS011;20542;49.828;8.746;2022-07-03T03:52:35;4.60;;;1.20;;
34282;SDS011;20542;49.828;8.746;2022-07-03T03:55:01;3.08;;;1.20;;
34282;SDS011;20542;49.828;8.746;2022-07-03T03:57:27;1.75;;;1.40;;
34282;SDS011;20542;49.828;8.746;2022-07-03T03:59:54;2.70;;;1.35;;
34282;SDS011;20542;49.828;8.746;2022-07-03T04:02:20;3.03;;;1.60;;
34282;SDS011;20542;49.828;8.746;2022-07-03T04:04:46;1.23;;;1.13;;
34282;SDS011;20542;49.828;8.746;2022-07-03T04:07:12;1.65;;;1.30;;
34282;SDS011;20542;49.828;8.746;2022-07-03T04:09:37;3.40;;;1.60;;
34282;SDS011;20542;49.828;8.746;2022-07-03T04:12:03;2.25;;;1.45;;
34282;SDS011;20542;49.828;8.746;2022-07-03T04:14:30;2.90;;;1.60;;
34282;SDS011;20542;49.828;8.746;2022-07-03T04:16:55;4.00;;;1.42;;
34282;SDS011;20542;49.828;8.746;2022-07-03T04:19:21;1.60;;;1.50;;
34282;SDS011;20542;49.828;8.746;2022-07-03T04:21:47;2.63;;;1.42;;
34282;SDS011;20542;49.828;8.746;2022-07-03T04:24:14;3.25;;;1.60;;
34282;SDS011;20542;49.828;8.746;2022-07-03T04:26:40;1.45;;;1.30;;
34282;SDS011;20542;49.828;8.746;2022-07-03T04:29:06;1.50;;;1.30;;
34282;SDS011;20542;49.828;8.746;2022-07-03T04:31:31;1.50;;;1.30;;
34282;SDS011;20542;49.828;8.746;2022-07-03T04:33:57;1.42;;;1.20;;
34282;SDS011;20542;49.828;8.746;2022-07-03T04:36:23;2.90;;;1.27;;
34282;SDS011;20542;49.828;8.746;2022-07-03T04:38:48;1.23;;;1.05;;
34282;SDS011;20542;49.828;8.746;2022-07-03T04:41:14;1.27;;;1.13;;
34282;SDS011;20542;49.828;8.746;2022-07-03T04:43:39;1.58;;;1.27;;
34282;SDS011;20542;49.828;8.746;2022-07-03T04:46:05;1.63;;;1.40;;
34282;SDS011;20542;49.828;8.746;2022-07-03T04:48:30;1.38;;;1.27;;
34282;SDS011;20542;49.828;8.746;2022-07-03T04:50:57;1.70;;;1.30;;
34282;SDS011;20542;49.828;8.746;2022-07-03T04:53:22;3.47;;;1.03;;
34282;SDS011;20542;49.828;8.746;2022-07-03T04:55:48;2.17;;;1.50;;
34282;SDS011;20542;49.828;8.746;2022-07-03T04:58:14;2.97;;;1.23;;
34282;SDS011;20542;49.828;8.746;2022-07-03T05:00:40;3.42;;;1.33;;
34282;SDS011;20542;49.828;8.746;2022-07-03T05:03:07;1.48;;;1.23;;
34282;SDS011;20542;49.828;8.746;2022-07-03T05:05:33;1.48;;;1.30;;
34282;SDS011;20542;49.828;8.746;2022-07-03T05:07:58;1.13;;;1.02;;
34282;SDS011;20542;49.828;8.746;2022-07-03T05:10:25;1.98;;;1.13;;
34282;SDS011;20542;49.828;8.746;2022-07-03T05:12:50;1.95;;;1.10;;
34282;SDS011;20542;49.828;8.746;2022-07-03T05:15:16;0.88;;;0.80;;
34282;SDS011;20542;49.828;8.746;2022-07-03T05:17:41;4.45;;;1.13;;
34282;SDS011;20542;49.828;8.746;2022-07-03T05:20:07;1.67;;;0.95;;
34282;SDS011;20542;49.828;8.746;2022-07-03T05:22:52;1.73;;;1.27;;
34282;SDS011;20542;49.828;8.746;2022-07-03T05:25:18;1.10;;;1.00;;
34282;SDS011;20542;49.828;8.746;2022-07-03T05:27:45;1.67;;;1.00;;
34282;SDS011;20542;49.828;8.746;2022-07-03T05:30:11;6.47;;;1.35;;
34282;SDS011;20542;49.828;8.746;2022-07-03T05:32:37;2.05;;;1.20;;
34282;SDS011;20542;49.828;8.746;2022-07-03T05:35:03;1.30;;;1.20;;
34282;SDS011;20542;49.828;8.746;2022-07-03T05:37:29;1.20;;;1.10;;
34282;SDS011;20542;49.828;8.746;2022-07-03T05:39:54;2.08;;;1.00;;
34282;SDS011;20542;49.828;8.746;2022-07-03T05:42:20;1.83;;;1.17;;
34282;SDS011;20542;49.828;8.746;2022-07-03T05:44:46;1.35;;;1.13;;
34282;SDS011;20542;49.828;8.746;2022-07-03T05:47:11;4.55;;;1.20;;
34282;SDS011;20542;49.828;8.746;2022-07-03T05:49:37;2.92;;;1.35;;
34282;SDS011;20542;49.828;8.746;2022-07-03T05:52:02;1.85;;;1.20;;
34282;SDS011;20542;49.828;8.746;2022-07-03T05:54:28;1.60;;;1.35;;
34282;SDS011;20542;49.828;8.746;2022-07-03T05:56:54;1.40;;;1.10;;
34282;SDS011;20542;49.828;8.746;2022-07-03T05:59:19;2.00;;;1.23;;
34282;SDS011;20542;49.828;8.746;2022-07-03T06:01:45;1.23;;;0.90;;
34282;SDS011;20542;49.828;8.746;2022-07-03T06:04:10;1.83;;;1.30;;
34282;SDS011;20542;49.828;8.746;2022-07-03T06:06:36;1.70;;;1.10;;
34282;SDS011;20542;49.828;8.746;2022-07-03T06:09:02;2.17;;;1.10;;
34282;SDS011;20542;49.828;8.746;2022-07-03T06:11:28;2.63;;;1.20;;
34282;SDS011;20542;49.828;8.746;2022-07-03T06:13:53;2.85;;;1.55;;
34282;SDS011;20542;49.828;8.746;2022-07-03T06:16:19;2.45;;;1.20;;
34282;SDS011;20542;49.828;8.746;2022-07-03T06:18:44;2.63;;;1.23;;
34282;SDS011;20542;49.828;8.746;2022-07-03T06:21:10;4.40;;;1.00;;
34282;SDS011;20542;49.828;8.746;2022-07-03T06:23:35;1.33;;;0.93;;
34282;SDS011;20542;49.828;8.746;2022-07-03T06:26:01;2.20;;;1.23;;
34282;SDS011;20542;49.828;8.746;2022-07-03T06:28:27;1.23;;;0.90;;
34282;SDS011;20542;49.828;8.746;2022-07-03T06:30:52;1.70;;;1.02;;
34282;SDS011;20542;49.828;8.746;2022-07-03T06:33:18;1.20;;;0.93;;
34282;SDS011;20542;49.828;8.746;2022-07-03T06:35:44;1.02;;;0.82;;
34282;SDS011;20542;49.828;8.746;2022-07-03T06:38:09;2.05;;;1.10;;
34282;SDS011;20542;49.828;8.746;2022-07-03T06:40:35;2.58;;;1.38;;
34282;SDS011;20542;49.828;8.746;2022-07-03T06:43:00;4.40;;;1.48;;
34282;SDS011;20542;49.828;8.746;2022-07-03T06:45:26;2.67;;;0.93;;
34282;SDS011;20542;49.828;8.746;2022-07-03T06:47:51;2.90;;;1.23;;
34282;SDS011;20542;49.828;8.746;2022-07-03T06:50:17;1.40;;;0.95;;
34282;SDS011;20542;49.828;8.746;2022-07-03T06:52:43;3.95;;;1.15;;
34282;SDS011;20542;49.828;8.746;2022-07-03T06:55:08;1.92;;;1.27;;
34282;SDS011;20542;49.828;8.746;2022-07-03T06:57:34;1.45;;;0.95;;
34282;SDS011;20542;49.828;8.746;2022-07-03T06:59:59;1.10;;;0.90;;
34282;SDS011;20542;49.828;8.746;2022-07-03T07:02:25;3.42;;;0.95;;
34282;SDS011;20542;49.828;8.746;2022-07-03T07:04:51;7.13;;;1.27;;
34282;SDS011;20542;49.828;8.746;2022-07-03T07:07:16;2.60;;;1.08;;
34282;SDS011;20542;49.828;8.746;2022-07-03T07:09:42;1.65;;;1.00;;
34282;SDS011;20542;49.828;8.746;2022-07-03T07:12:08;1.15;;;1.05;;
34282;SDS011;20542;49.828;8.746;2022-07-03T07:14:33;1.00;;;0.90;;
34282;SDS011;20542;49.828;8.746;2022-07-03T07:16:59;6.32;;;1.10;;
34282;SDS011;20542;49.828;8.746;2022-07-03T07:19:25;1.63;;;0.90;;
34282;SDS011;20542;49.828;8.746;2022-07-03T07:21:50;4.05;;;0.80;;
34282;SDS011;20542;49.828;8.746;2022-07-03T07:24:16;1.42;;;0.90;;
34282;SDS011;20542;49.828;8.746;2022-07-03T07:26:41;2.35;;;0.82;;
34282;SDS011;20542;49.828;8.746;2022-07-03T07:29:07;1.30;;;1.00;;
34282;SDS011;20542;49.828;8.746;2022-07-03T07:31:33;2.22;;;1.20;;
34282;SDS011;20542;49.828;8.746;2022-07-03T07:33:58;2.38;;;0.93;;
34282;SDS011;20542;49.828;8.746;2022-07-03T07:36:24;2.60;;;0.85;;
34282;SDS011;20542;49.828;8.746;2022-07-03T07:38:49;1.20;;;1.00;;
34282;SDS011;20542;49.828;8.746;2022-07-03T07:41:16;0.73;;;0.73;;
34282;SDS011;20542;49.828;8.746;2022-07-03T07:43:42;1.38;;;1.05;;
34282;SDS011;20542;49.828;8.746;2022-07-03T07:46:07;0.77;;;0.70;;
34282;SDS011;20542;49.828;8.746;2022-07-03T07:48:35;2.42;;;1.00;;
34282;SDS011;20542;49.828;8.746;2022-07-03T07:51:01;1.15;;;0.95;;
34282;SDS011;20542;49.828;8.746;2022-07-03T07:53:27;1.10;;;1.00;;
34282;SDS011;20542;49.828;8.746;2022-07-03T07:55:52;2.53;;;1.15;;
34282;SDS011;20542;49.828;8.746;2022-07-03T07:58:18;3.20;;;1.30;;
34282;SDS011;20542;49.828;8.746;2022-07-03T08:00:43;4.25;;;1.13;;
34282;SDS011;20542;49.828;8.746;2022-07-03T08:03:29;4.25;;;1.10;;
34282;SDS011;20542;49.828;8.746;2022-07-03T08:06:14;1.90;;;1.27;;
34282;SDS011;20542;49.828;8.746;2022-07-03T08:08:39;0.80;;;0.70;;
34282;SDS011;20542;49.828;8.746;2022-07-03T08:11:05;2.80;;;1.10;;
34282;SDS011;20542;49.828;8.746;2022-07-03T08:13:30;2.40;;;1.08;;
34282;SDS011;20542;49.828;8.746;2022-07-03T08:15:57;5.05;;;1.15;;
34282;SDS011;20542;49.828;8.746;2022-07-03T08:18:22;0.97;;;0.80;;
34282;SDS011;20542;49.828;8.746;2022-07-03T08:20:48;2.05;;;1.23;;
34282;SDS011;20542;49.828;8.746;2022-07-03T08:23:14;2.10;;;1.10;;
34282;SDS011;20542;49.828;8.746;2022-07-03T08:25:39;3.30;;;1.17;;
34282;SDS011;20542;49.828;8.746;2022-07-03T08:28:05;1.10;;;0.75;;
34282;SDS011;20542;49.828;8.746;2022-07-03T08:30:30;1.43;;;1.03;;
34282;SDS011;20542;49.828;8.746;2022-07-03T08:32:56;1.10;;;1.00;;
34282;SDS011;20542;49.828;8.746;2022-07-03T08:37:49;1.33;;;1.07;;
34282;SDS011;20542;49.828;8.746;2022-07-03T08:40:16;2.75;;;0.98;;
34282;SDS011;20542;49.828;8.746;2022-07-03T08:42:52;5.03;;;1.00;;
34282;SDS011;20542;49.828;8.746;2022-07-03T08:45:21;1.10;;;1.00;;
34282;SDS011;20542;49.828;8.746;2022-07-03T08:47:48;1.45;;;0.85;;
34282;SDS011;20542;49.828;8.746;2022-07-03T08:52:41;2.22;;;1.30;;
34282;SDS011;20542;49.828;8.746;2022-07-03T08:55:08;1.27;;;0.90;;
34282;SDS011;20542;49.828;8.746;2022-07-03T08:57:38;2.03;;;1.13;;
34282;SDS011;20542;49.828;8.746;2022-07-03T09:00:06;1.98;;;1.00;;
34282;SDS011;20542;49.828;8.746;2022-07-03T09:02:40;1.48;;;0.98;;
34282;SDS011;20542;49.828;8.746;2022-07-03T09:05:08;3.58;;;1.00;;
34282;SDS011;20542;49.828;8.746;2022-07-03T09:07:35;2.38;;;1.10;;
34282;SDS011;20542;49.828;8.746;2022-07-03T09:10:06;2.00;;;1.00;;
34282;SDS011;20542;49.828;8.746;2022-07-03T09:12:33;3.05;;;1.10;;
34282;SDS011;20542;49.828;8.746;2022-07-03T09:14:59;1.65;;;1.25;;
34282;SDS011;20542;49.828;8.746;2022-07-03T09:17:28;2.47;;;0.90;;
34282;SDS011;20542;49.828;8.746;2022-07-03T09:19:55;2.75;;;1.08;;
34282;SDS011;20542;49.828;8.746;2022-07-03T09:22:24;4.70;;;1.20;;
34282;SDS011;20542;49.828;8.746;2022-07-03T09:24:51;1.85;;;1.10;;
34282;SDS011;20542;49.828;8.746;2022-07-03T09:27:19;2.22;;;0.90;;
34282;SDS011;20542;49.828;8.746;2022-07-03T09:29:59;4.05;;;1.17;;
34282;SDS011;20542;49.828;8.746;2022-07-03T09:32:30;1.52;;;0.85;;
34282;SDS011;20542;49.828;8.746;2022-07-03T09:35:15;1.67;;;1.13;;
34282;SDS011;20542;49.828;8.746;2022-07-03T09:37:51;2.47;;;0.82;;
34282;SDS011;20542;49.828;8.746;2022-07-03T09:40:22;3.65;;;0.90;;
34282;SDS011;20542;49.828;8.746;2022-07-03T09:43:02;2.97;;;1.13;;
34282;SDS011;20542;49.828;8.746;2022-07-03T09:53:56;3.17;;;0.90;;
34282;SDS011;20542;49.828;8.746;2022-07-03T09:56:35;1.15;;;0.77;;
34282;SDS011;20542;49.828;8.746;2022-07-03T09:59:10;1.10;;;0.88;;
34282;SDS011;20542;49.828;8.746;2022-07-03T10:01:37;0.90;;;0.80;;
34282;SDS011;20542;49.828;8.746;2022-07-03T10:04:19;3.22;;;1.13;;
34282;SDS011;20542;49.828;8.746;2022-07-03T10:09:28;3.20;;;1.05;;
34282;SDS011;20542;49.828;8.746;2022-07-03T10:11:59;2.10;;;1.05;;
34282;SDS011;20542;49.828;8.746;2022-07-03T10:14:28;3.97;;;1.10;;
34282;SDS011;20542;49.828;8.746;2022-07-03T10:16:54;2.90;;;1.05;;
34282;SDS011;20542;49.828;8.746;2022-07-03T10:19:26;1.10;;;0.95;;
34282;SDS011;20542;49.828;8.746;2022-07-03T10:21:54;1.90;;;1.10;;
34282;SDS011;20542;49.828;8.746;2022-07-03T10:24:26;3.08;;;0.80;;
34282;SDS011;20542;49.828;8.746;2022-07-03T10:26:54;2.10;;;0.70;;
34282;SDS011;20542;49.828;8.746;2022-07-03T10:29:21;4.47;;;0.93;;
34282;SDS011;20542;49.828;8.746;2022-07-03T10:31:48;1.77;;;0.93;;
34282;SDS011;20542;49.828;8.746;2022-07-03T10:34:17;1.60;;;0.70;;
34282;SDS011;20542;49.828;8.746;2022-07-03T10:36:49;6.18;;;0.90;;
34282;SDS011;20542;49.828;8.746;2022-07-03T10:39:20;1.33;;;0.82;;
34282;SDS011;20542;49.828;8.746;2022-07-03T10:42:09;3.28;;;0.80;;
34282;SDS011;20542;49.828;8.746;2022-07-03T10:45:08;0.90;;;0.77;;
34282;SDS011;20542;49.828;8.746;2022-07-03T10:47:44;2.50;;;0.60;;
34282;SDS011;20542;49.828;8.746;2022-07-03T10:50:15;3.58;;;0.98;;
34282;SDS011;20542;49.828;8.746;2022-07-03T10:52:42;1.13;;;0.63;;
34282;SDS011;20542;49.828;8.746;2022-07-03T10:55:08;2.23;;;0.80;;
34282;SDS011;20542;49.828;8.746;2022-07-03T10:57:35;0.73;;;0.60;;
34282;SDS011;20542;49.828;8.746;2022-07-03T11:00:03;2.10;;;0.70;;
34282;SDS011;20542;49.828;8.746;2022-07-03T11:02:39;0.88;;;0.68;;
34282;SDS011;20542;49.828;8.746;2022-07-03T11:18:19;1.30;;;0.77;;
34282;SDS011;20542;49.828;8.746;2022-07-03T11:25:52;1.02;;;0.63;;
34282;SDS011;20542;49.828;8.746;2022-07-03T11:38:45;0.60;;;0.60;;
34282;SDS011;20542;49.828;8.746;2022-07-03T11:44:01;2.40;;;0.90;;
34282;SDS011;20542;49.828;8.746;2022-07-03T11:46:32;1.15;;;0.65;;
34282;SDS011;20542;49.828;8.746;2022-07-03T11:49:09;0.80;;;0.63;;
34282;SDS011;20542;49.828;8.746;2022-07-03T11:51:42;2.13;;;0.70;;
34282;SDS011;20542;49.828;8.746;2022-07-03T11:54:25;0.80;;;0.70;;
34282;SDS011;20542;49.828;8.746;2022-07-03T11:56:54;2.42;;;0.73;;
34282;SDS011;20542;49.828;8.746;2022-07-03T11:59:19;3.27;;;1.10;;
34282;SDS011;20542;49.828;8.746;2022-07-03T12:01:45;1.00;;;0.70;;
34282;SDS011;20542;49.828;8.746;2022-07-03T12:04:12;0.88;;;0.52;;
34282;SDS011;20542;49.828;8.746;2022-07-03T12:06:44;1.10;;;0.68;;
34282;SDS011;20542;49.828;8.746;2022-07-03T12:14:35;1.00;;;0.65;;
34282;SDS011;20542;49.828;8.746;2022-07-03T12:17:04;3.90;;;0.65;;
34282;SDS011;20542;49.828;8.746;2022-07-03T12:19:30;1.38;;;0.75;;
34282;SDS011;20542;49.828;8.746;2022-07-03T12:21:56;0.83;;;0.60;;
34282;SDS011;20542;49.828;8.746;2022-07-03T12:24:22;4.23;;;0.40;;
34282;SDS011;20542;49.828;8.746;2022-07-03T12:26:48;0.70;;;0.70;;
34282;SDS011;20542;49.828;8.746;2022-07-03T12:29:14;0.83;;;0.60;;
34282;SDS011;20542;49.828;8.746;2022-07-03T12:31:41;0.93;;;0.50;;
34282;SDS011;20542;49.828;8.746;2022-07-03T12:34:09;1.52;;;0.68;;
34282;SDS011;20542;49.828;8.746;2022-07-03T12:36:36;0.93;;;0.52;;
34282;SDS011;20542;49.828;8.746;2022-07-03T12:39:02;1.38;;;0.60;;
34282;SDS011;20542;49.828;8.746;2022-07-03T12:41:28;0.60;;;0.57;;
34282;SDS011;20542;49.828;8.746;2022-07-03T12:43:54;0.60;;;0.60;;
34282;SDS011;20542;49.828;8.746;2022-07-03T12:54:10;0.85;;;0.50;;
34282;SDS011;20542;49.828;8.746;2022-07-03T12:56:38;0.68;;;0.60;;
34282;SDS011;20542;49.828;8.746;2022-07-03T12:59:04;2.75;;;0.40;;
34282;SDS011;20542;49.828;8.746;2022-07-03T13:01:43;2.05;;;0.70;;
34282;SDS011;20542;49.828;8.746;2022-07-03T13:04:33;0.82;;;0.60;;
34282;SDS011;20542;49.828;8.746;2022-07-03T13:07:04;1.23;;;0.60;;
34282;SDS011;20542;49.828;8.746;2022-07-03T13:09:31;2.78;;;0.70;;
34282;SDS011;20542;49.828;8.746;2022-07-03T13:11:58;2.67;;;0.77;;
34282;SDS011;20542;49.828;8.746;2022-07-03T13:14:23;1.20;;;0.50;;
34282;SDS011;20542;49.828;8.746;2022-07-03T13:16:50;1.30;;;0.70;;
34282;SDS011;20542;49.828;8.746;2022-07-03T13:19:18;1.75;;;0.70;;
34282;SDS011;20542;49.828;8.746;2022-07-03T13:21:45;1.85;;;0.75;;
34282;SDS011;20542;49.828;8.746;2022-07-03T13:24:12;1.13;;;0.70;;
34282;SDS011;20542;49.828;8.746;2022-07-03T13:26:39;1.23;;;0.73;;
34282;SDS011;20542;49.828;8.746;2022-07-03T13:29:05;2.25;;;0.77;;
34282;SDS011;20542;49.828;8.746;2022-07-03T13:33:58;2.00;;;0.68;;
34282;SDS011;20542;49.828;8.746;2022-07-03T13:36:25;0.65;;;0.52;;
34282;SDS011;20542;49.828;8.746;2022-07-03T13:38:51;0.70;;;0.50;;
34282;SDS011;20542;49.828;8.746;2022-07-03T13:41:17;0.70;;;0.47;;
34282;SDS011;20542;49.828;8.746;2022-07-03T13:43:46;2.30;;;0.60;;
34282;SDS011;20542;49.828;8.746;2022-07-03T13:46:12;1.88;;;0.65;;
34282;SDS011;20542;49.828;8.746;2022-07-03T13:48:37;1.00;;;0.50;;
34282;SDS011;20542;49.828;8.746;2022-07-03T13:51:03;0.60;;;0.50;;
34282;SDS011;20542;49.828;8.746;2022-07-03T13:53:28;0.43;;;0.40;;
34282;SDS011;20542;49.828;8.746;2022-07-03T13:55:55;1.20;;;0.70;;
34282;SDS011;20542;49.828;8.746;2022-07-03T13:58:22;4.57;;;0.52;;
34282;SDS011;20542;49.828;8.746;2022-07-03T14:00:48;1.23;;;0.63;;
34282;SDS011;20542;49.828;8.746;2022-07-03T14:03:14;0.70;;;0.57;;
34282;SDS011;20542;49.828;8.746;2022-07-03T14:05:39;2.13;;;0.70;;
34282;SDS011;20542;49.828;8.746;2022-07-03T14:08:05;2.37;;;0.70;;
34282;SDS011;20542;49.828;8.746;2022-07-03T14:10:31;3.00;;;0.90;;
34282;SDS011;20542;49.828;8.746;2022-07-03T14:12:56;1.30;;;0.63;;
34282;SDS011;20542;49.828;8.746;2022-07-03T14:15:22;0.50;;;0.50;;
34282;SDS011;20542;49.828;8.746;2022-07-03T14:17:47;1.47;;;0.50;;
34282;SDS011;20542;49.828;8.746;2022-07-03T14:20:13;2.90;;;0.80;;
34282;SDS011;20542;49.828;8.746;2022-07-03T14:22:39;1.10;;;0.80;;
34282;SDS011;20542;49.828;8.746;2022-07-03T14:25:05;6.57;;;0.70;;
34282;SDS011;20542;49.828;8.746;2022-07-03T14:27:31;0.85;;;0.50;;
34282;SDS011;20542;49.828;8.746;2022-07-03T14:30:15;1.25;;;0.57;;
34282;SDS011;20542;49.828;8.746;2022-07-03T14:32:59;1.73;;;0.70;;
34282;SDS011;20542;49.828;8.746;2022-07-03T14:35:25;2.87;;;0.70;;
34282;SDS011;20542;49.828;8.746;2022-07-03T14:37:51;2.60;;;0.50;;
34282;SDS011;20542;49.828;8.746;2022-07-03T14:40:17;0.50;;;0.37;;
34282;SDS011;20542;49.828;8.746;2022-07-03T14:42:42;1.03;;;0.60;;
34282;SDS011;20542;49.828;8.746;2022-07-03T14:45:08;1.70;;;0.63;;
34282;SDS011;20542;49.828;8.746;2022-07-03T14:47:35;0.65;;;0.60;;
34282;SDS011;20542;49.828;8.746;2022-07-03T14:50:00;1.13;;;0.50;;
34282;SDS011;20542;49.828;8.746;2022-07-03T14:52:26;1.47;;;1.10;;
34282;SDS011;20542;49.828;8.746;2022-07-03T15:02:32;0.80;;;0.60;;
34282;SDS011;20542;49.828;8.746;2022-07-03T15:07:33;1.70;;;0.53;;
34282;SDS011;20542;49.828;8.746;2022-07-03T15:10:04;0.95;;;0.60;;
34282;SDS011;20542;49.828;8.746;2022-07-03T15:12:36;2.38;;;0.60;;
34282;SDS011;20542;49.828;8.746;2022-07-03T15:15:09;1.02;;;0.60;;
34282;SDS011;20542;49.828;8.746;2022-07-03T15:17:36;1.85;;;0.70;;
34282;SDS011;20542;49.828;8.746;2022-07-03T15:20:03;0.93;;;0.68;;
34282;SDS011;20542;49.828;8.746;2022-07-03T15:22:30;3.08;;;0.70;;
34282;SDS011;20542;49.828;8.746;2022-07-03T15:24:58;2.30;;;0.90;;
34282;SDS011;20542;49.828;8.746;2022-07-03T15:27:24;1.60;;;0.90;;
34282;SDS011;20542;49.828;8.746;2022-07-03T15:29:53;4.03;;;0.70;;
34282;SDS011;20542;49.828;8.746;2022-07-03T15:32:20;1.00;;;0.60;;
34282;SDS011;20542;49.828;8.746;2022-07-03T15:34:45;3.60;;;1.00;;
34282;SDS011;20542;49.828;8.746;2022-07-03T15:40:05;1.45;;;0.50;;
34282;SDS011;20542;49.828;8.746;2022-07-03T15:50:57;1.58;;;0.80;;
34282;SDS011;20542;49.828;8.746;2022-07-03T15:53:33;2.30;;;0.77;;
34282;SDS011;20542;49.828;8.746;2022-07-03T15:56:02;3.95;;;1.00;;
34282;SDS011;20542;49.828;8.746;2022-07-03T15:58:30;2.38;;;0.63;;
34282;SDS011;20542;49.828;8.746;2022-07-03T16:00:58;0.98;;;0.60;;
34282;SDS011;20542;49.828;8.746;2022-07-03T16:06:29;1.40;;;0.77;;
34282;SDS011;20542;49.828;8.746;2022-07-03T16:08:56;0.98;;;0.65;;
34282;SDS011;20542;49.828;8.746;2022-07-03T16:11:22;1.37;;;1.20;;
34282;SDS011;20542;49.828;8.746;2022-07-03T16:13:48;3.00;;;0.90;;
34282;SDS011;20542;49.828;8.746;2022-07-03T16:16:17;5.10;;;0.73;;
34282;SDS011;20542;49.828;8.746;2022-07-03T16:18:45;0.73;;;0.50;;
34282;SDS011;20542;49.828;8.746;2022-07-03T16:21:12;1.48;;;0.77;;
34282;SDS011;20542;49.828;8.746;2022-07-03T16:26:06;1.88;;;0.65;;
34282;SDS011;20542;49.828;8.746;2022-07-03T16:28:34;0.75;;;0.47;;
34282;SDS011;20542;49.828;8.746;2022-07-03T16:31:00;4.07;;;0.80;;
34282;SDS011;20542;49.828;8.746;2022-07-03T16:33:27;1.83;;;1.23;;
34282;SDS011;20542;49.828;8.746;2022-07-03T16:36:06;2.08;;;0.70;;
34282;SDS011;20542;49.828;8.746;2022-07-03T16:38:44;0.93;;;0.68;;
34282;SDS011;20542;49.828;8.746;2022-07-03T16:41:16;0.70;;;0.70;;
34282;SDS011;20542;49.828;8.746;2022-07-03T16:43:46;0.65;;;0.65;;
34282;SDS011;20542;49.828;8.746;2022-07-03T16:46:15;1.98;;;0.73;;
34282;SDS011;20542;49.828;8.746;2022-07-03T16:48:43;1.75;;;0.80;;
34282;SDS011;20542;49.828;8.746;2022-07-03T16:51:14;2.03;;;0.60;;
34282;SDS011;20542;49.828;8.746;2022-07-03T16:53:41;1.38;;;0.52;;
34282;SDS011;20542;49.828;8.746;2022-07-03T16:56:08;2.60;;;0.65;;
34282;SDS011;20542;49.828;8.746;2022-07-03T16:58:35;2.58;;;0.73;;
34282;SDS011;20542;49.828;8.746;2022-07-03T17:01:07;0.45;;;0.45;;
34282;SDS011;20542;49.828;8.746;2022-07-03T17:03:35;1.83;;;0.65;;
34282;SDS011;20542;49.828;8.746;2022-07-03T17:06:01;1.20;;;0.63;;